Time;durP1;ratioP1;P1;durP2;ratioP2;P2;SDS_P1;SDS_P2;PMS_P1;PMS_P2;Temp;Humidity;BMP_temperature;BMP_pressure;BME280_temperature;BME280_humidity;BME280_pressure;Samples;Min_cycle;Max_cycle;Signal;HPM_P1;HPM_P2
2021/07/10 00:01:29;;;;;;;19.52;14.48;;;;;;;20.50;76.90;101255.53;6153876;23;20561;-80
2021/07/10 00:03:56;;;;;;;20.20;15.98;;;;;;;20.37;77.25;101258.06;6153832;23;20341;-80
2021/07/10 00:06:22;;;;;;;24.55;16.23;;;;;;;20.47;77.00;101250.44;6153647;23;20005;-80
2021/07/10 00:08:47;;;;;;;20.92;14.95;;;;;;;20.53;77.24;101247.00;6153316;23;20079;-80
2021/07/10 00:11:12;;;;;;;18.98;13.13;;;;;;;20.56;77.00;101248.50;6153736;23;20012;-80
2021/07/10 00:13:38;;;;;;;19.83;15.73;;;;;;;20.90;75.14;101247.88;6153761;23;20056;-80
2021/07/10 00:16:03;;;;;;;22.77;15.65;;;;;;;20.51;76.67;101254.50;6153930;23;20346;-80
2021/07/10 00:18:29;;;;;;;17.52;14.77;;;;;;;21.02;74.83;101251.81;6153836;23;20006;-80
2021/07/10 00:20:54;;;;;;;16.33;14.13;;;;;;;20.69;76.09;101247.81;6127319;23;20021;-81
2021/07/10 00:23:19;;;;;;;19.73;14.30;;;;;;;20.87;75.45;101251.00;6153227;23;20009;-80
2021/07/10 00:25:45;;;;;;;18.30;12.63;;;;;;;20.89;75.27;101244.31;6153862;23;20378;-80
2021/07/10 00:28:10;;;;;;;16.77;14.35;;;;;;;20.82;74.78;101245.28;6153405;23;20030;-81
2021/07/10 00:30:36;;;;;;;20.35;14.63;;;;;;;20.62;75.75;101242.28;6153261;23;20438;-80
2021/07/10 00:33:02;;;;;;;17.75;14.82;;;;;;;20.80;75.42;101240.00;6153480;23;20009;-80
2021/07/10 00:35:29;;;;;;;22.35;14.75;;;;;;;20.79;75.15;101234.72;6126067;23;20067;-80
2021/07/10 00:37:54;;;;;;;20.55;13.65;;;;;;;20.76;75.17;101232.38;6126412;23;20063;-80
2021/07/10 00:40:20;;;;;;;20.42;13.55;;;;;;;20.72;76.11;101229.16;6127494;23;20490;-80
2021/07/10 00:42:45;;;;;;;22.17;13.75;;;;;;;20.81;75.15;101230.75;6126974;23;20016;-80
2021/07/10 00:45:12;;;;;;;21.00;14.82;;;;;;;20.59;76.10;101221.63;6153621;23;20009;-80
2021/07/10 00:47:38;;;;;;;23.42;15.45;;;;;;;20.82;75.97;101223.41;6153109;23;20024;-80
2021/07/10 00:50:09;;;;;;;22.30;16.08;;;;;;;20.80;75.23;101217.28;6153449;23;20073;-80
2021/07/10 00:52:34;;;;;;;23.00;16.23;;;;;;;20.91;74.35;101205.88;6153065;23;20016;-80
2021/07/10 00:54:59;;;;;;;19.58;15.60;;;;;;;20.75;74.98;101208.78;6152882;23;20430;-80
2021/07/10 00:57:25;;;;;;;20.75;14.73;;;;;;;20.80;74.96;101211.81;6153089;23;20008;-80
2021/07/10 00:59:51;;;;;;;17.83;12.10;;;;;;;20.89;74.99;101210.66;6127046;23;20013;-81
2021/07/10 01:02:17;;;;;;;23.73;15.93;;;;;;;21.08;73.46;101201.00;6126480;23;20017;-80
2021/07/10 01:04:42;;;;;;;19.88;15.02;;;;;;;21.10;73.69;101207.97;6153530;23;20063;-80
2021/07/10 01:07:08;;;;;;;21.58;16.45;;;;;;;21.16;73.45;101208.25;6153361;23;20010;-80
2021/07/10 01:09:33;;;;;;;22.00;13.15;;;;;;;21.06;73.40;101206.66;6153107;23;20005;-80
2021/07/10 01:11:59;;;;;;;18.38;11.93;;;;;;;21.18;72.54;101203.41;6152939;23;20006;-80
2021/07/10 01:14:25;;;;;;;17.83;14.25;;;;;;;21.17;72.62;101199.81;6153461;23;20013;-80
2021/07/10 01:16:50;;;;;;;19.52;13.85;;;;;;;21.14;72.55;101199.38;6153541;23;20040;-80
2021/07/10 01:19:28;;;;;;;18.30;14.80;;;;;;;20.86;73.79;101200.13;6127394;23;20010;-80
2021/07/10 01:21:55;;;;;;;16.95;13.52;;;;;;;21.06;72.74;101208.56;6153056;23;20081;-80
2021/07/10 01:24:21;;;;;;;21.48;14.85;;;;;;;20.97;73.03;101205.09;6152952;23;20016;-80
2021/07/10 01:26:46;;;;;;;24.73;17.70;;;;;;;21.07;72.48;101204.78;6127039;23;20338;-80
2021/07/10 01:29:12;;;;;;;29.23;17.35;;;;;;;21.13;72.83;101203.16;6153150;23;20021;-80
2021/07/10 01:31:39;;;;;;;18.98;14.88;;;;;;;21.10;72.45;101202.50;6126455;23;20012;-80
2021/07/10 01:34:04;;;;;;;25.90;15.32;;;;;;;21.15;72.67;101195.59;6153350;23;20009;-81
2021/07/10 01:36:30;;;;;;;21.90;16.45;;;;;;;20.99;73.30;101203.00;6153254;23;20076;-81
2021/07/10 01:38:55;;;;;;;27.00;15.85;;;;;;;20.85;73.95;101199.28;6152561;23;20012;-81
2021/07/10 01:41:20;;;;;;;26.73;18.00;;;;;;;20.97;73.76;101194.16;6126140;23;20009;-80
2021/07/10 01:43:46;;;;;;;24.60;17.38;;;;;;;20.70;74.36;101193.00;6152428;23;20020;-81
2021/07/10 01:46:11;;;;;;;32.97;20.50;;;;;;;20.77;75.45;101195.78;6152742;23;20443;-80
2021/07/10 01:48:36;;;;;;;26.05;19.33;;;;;;;20.86;75.39;101192.75;6124919;23;20019;-80
2021/07/10 01:51:02;;;;;;;29.00;20.35;;;;;;;20.87;75.73;101197.16;6125701;23;20005;-81
2021/07/10 01:53:28;;;;;;;27.67;21.88;;;;;;;20.83;76.39;101193.13;6152876;23;20358;-81
2021/07/10 01:55:53;;;;;;;29.88;21.33;;;;;;;20.48;78.43;101191.16;6152391;23;20006;-81
2021/07/10 01:58:18;;;;;;;31.58;23.40;;;;;;;20.30;80.12;101186.13;6152878;23;20055;-81
2021/07/10 02:00:45;;;;;;;33.78;23.90;;;;;;;20.50;79.63;101192.69;6152862;23;20426;-81
2021/07/10 02:03:12;;;;;;;33.58;23.83;;;;;;;20.43;79.09;101186.28;6152194;23;20005;-81
2021/07/10 02:05:37;;;;;;;32.97;22.25;;;;;;;20.47;79.47;101186.75;6152597;23;20020;-81
2021/07/10 02:08:04;;;;;;;35.17;24.75;;;;;;;20.53;78.85;101186.03;6152155;23;20041;-81
2021/07/10 02:10:33;;;;;;;38.47;24.42;;;;;;;20.51;78.65;101180.75;6151953;23;20534;-81
2021/07/10 02:13:11;;;;;;;29.27;21.45;;;;;;;20.52;79.51;101182.47;6152009;23;20073;-80
2021/07/10 02:15:38;;;;;;;34.70;23.92;;;;;;;20.51;78.42;101172.53;6126217;23;20437;-80
2021/07/10 02:18:05;;;;;;;37.75;25.02;;;;;;;20.42;80.08;101170.94;6152298;23;20005;-80
2021/07/10 02:20:30;;;;;;;38.28;25.83;;;;;;;20.45;79.22;101173.31;6152104;23;20006;-80
2021/07/10 02:22:57;;;;;;;36.88;25.70;;;;;;;20.51;79.42;101172.53;6152425;23;20012;-81
2021/07/10 02:25:24;;;;;;;32.05;22.92;;;;;;;20.47;79.19;101170.38;6152339;23;20032;-80
2021/07/10 02:27:51;;;;;;;36.53;24.60;;;;;;;20.52;78.83;101170.69;6152194;23;20342;-81
2021/07/10 02:30:24;;;;;;;36.22;23.92;;;;;;;20.45;78.91;101178.78;6125556;23;20036;-80
2021/07/10 02:32:49;;;;;;;31.65;23.10;;;;;;;20.39;77.47;101171.31;6125885;23;20009;-80
2021/07/10 02:35:16;;;;;;;33.47;22.98;;;;;;;20.39;78.86;101174.06;6152446;23;20005;-80
2021/07/10 02:37:41;;;;;;;38.05;25.65;;;;;;;20.14;77.71;101173.47;6152655;23;20426;-80
2021/07/10 02:40:09;;;;;;;38.95;23.25;;;;;;;20.22;78.06;101167.94;6152463;23;20064;-80
2021/07/10 02:42:35;;;;;;;32.58;23.23;;;;;;;20.26;78.39;101165.66;6126082;23;20009;-80
2021/07/10 02:45:02;;;;;;;39.92;27.50;;;;;;;20.24;78.07;101156.84;6152325;23;20395;-81
2021/07/10 02:47:27;;;;;;;44.97;26.63;;;;;;;20.26;78.45;101154.75;6151862;23;20040;-81
2021/07/10 02:49:53;;;;;;;33.20;24.55;;;;;;;20.43;77.49;101150.78;6151868;23;20068;-80
2021/07/10 02:52:18;;;;;;;34.80;24.25;;;;;;;20.42;76.38;101151.81;6125579;23;20032;-80
2021/07/10 02:54:43;;;;;;;41.38;26.85;;;;;;;20.49;76.59;101147.28;6152230;23;20067;-80
2021/07/10 02:57:09;;;;;;;35.78;25.83;;;;;;;20.47;76.23;101149.34;6152202;23;20715;-80
2021/07/10 02:59:34;;;;;;;38.33;26.25;;;;;;;20.53;75.96;101158.72;6152095;23;20005;-80
2021/07/10 03:02:00;;;;;;;35.50;25.60;;;;;;;20.50;75.32;101150.84;6152265;23;20072;-80
2021/07/10 03:04:25;;;;;;;34.78;25.50;;;;;;;20.57;75.05;101147.22;6152196;23;20006;-80
2021/07/10 03:06:50;;;;;;;36.78;26.60;;;;;;;20.55;74.68;101145.72;6152028;23;20012;-80
2021/07/10 03:09:16;;;;;;;39.63;23.92;;;;;;;20.49;74.33;101144.56;6151906;23;20478;-80
2021/07/10 03:11:42;;;;;;;33.17;23.15;;;;;;;20.37;75.26;101144.19;6151997;23;20084;-81
2021/07/10 03:14:07;;;;;;;34.92;23.85;;;;;;;20.17;75.29;101143.06;6151822;23;20096;-80
2021/07/10 03:16:32;;;;;;;31.63;22.27;;;;;;;20.19;76.17;101138.28;6152604;23;20012;-80
2021/07/10 03:18:58;;;;;;;40.90;27.70;;;;;;;20.06;76.33;101140.81;6154431;23;20012;-80
2021/07/10 03:21:23;;;;;;;36.08;25.42;;;;;;;19.98;76.44;101137.13;6153881;23;20009;-80
2021/07/10 03:23:48;;;;;;;33.28;23.40;;;;;;;19.86;76.70;101140.50;6154090;23;20009;-81
2021/07/10 03:26:14;;;;;;;36.85;23.67;;;;;;;19.74;77.73;101138.28;6153941;23;20083;-80
2021/07/10 03:28:40;;;;;;;34.88;24.38;;;;;;;19.86;77.71;101129.59;6153982;23;20013;-80
2021/07/10 03:31:06;;;;;;;38.13;24.52;;;;;;;19.99;75.92;101135.28;6153759;23;20047;-80
2021/07/10 03:33:35;;;;;;;30.65;22.48;;;;;;;20.39;75.53;101133.94;6127656;23;20770;-80
2021/07/10 03:36:01;;;;;;;38.58;25.40;;;;;;;19.93;76.22;101139.59;6153662;23;20320;-80
2021/07/10 03:38:27;;;;;;;32.83;23.52;;;;;;;19.95;76.89;101131.19;6153709;23;20002;-80
2021/07/10 03:40:52;;;;;;;37.58;23.52;;;;;;;20.43;74.22;101135.22;6153647;23;20092;-80
2021/07/10 03:43:17;;;;;;;38.90;23.42;;;;;;;20.31;73.65;101135.91;6153607;23;20009;-80
2021/07/10 03:45:43;;;;;;;26.98;20.08;;;;;;;20.04;73.14;101137.44;6153866;23;20378;-80
2021/07/10 03:48:08;;;;;;;28.50;19.67;;;;;;;20.18;73.24;101129.22;6153477;23;20912;-81
2021/07/10 03:50:34;;;;;;;31.95;21.67;;;;;;;20.02;72.39;101134.91;6127007;23;20048;-80
2021/07/10 03:52:59;;;;;;;27.35;20.23;;;;;;;19.96;73.01;101136.50;6153647;23;20013;-80
2021/07/10 03:55:25;;;;;;;30.13;21.50;;;;;;;19.95;73.74;101133.94;6153849;23;20006;-80
2021/07/10 03:57:50;;;;;;;32.13;20.23;;;;;;;19.91;73.16;101133.47;6153726;23;20076;-80
2021/07/10 04:00:18;;;;;;;27.42;18.23;;;;;;;19.96;72.81;101138.38;6127053;23;20390;-80
2021/07/10 04:02:44;;;;;;;25.08;18.98;;;;;;;19.93;72.85;101142.31;6153804;23;20039;-80
2021/07/10 04:05:10;;;;;;;27.17;19.45;;;;;;;19.85;73.19;101144.28;6153189;23;20005;-80
2021/07/10 04:07:37;;;;;;;27.88;18.00;;;;;;;19.90;71.55;101137.25;6127362;23;20056;-79
2021/07/10 04:10:05;;;;;;;23.17;17.45;;;;;;;20.08;71.78;101136.88;6153513;23;20005;-80
2021/07/10 04:12:30;;;;;;;24.58;18.58;;;;;;;20.08;70.74;101142.34;6153069;23;20005;-80
2021/07/10 04:15:00;;;;;;;27.60;19.83;;;;;;;19.77;69.88;101149.81;6126842;23;20009;-80
2021/07/10 04:17:27;;;;;;;27.70;17.20;;;;;;;19.83;70.80;101146.34;6153558;23;20382;-80
2021/07/10 04:19:52;;;;;;;30.05;17.85;;;;;;;19.83;70.73;101140.88;6153485;23;20009;-80
2021/07/10 04:22:17;;;;;;;28.38;17.25;;;;;;;19.71;71.66;101140.50;6126472;23;20460;-80
2021/07/10 04:24:43;;;;;;;28.15;19.00;;;;;;;19.74;71.18;101142.84;6153796;23;20016;-80
2021/07/10 04:27:08;;;;;;;25.55;19.08;;;;;;;19.87;70.07;101150.41;6126853;23;20048;-80
2021/07/10 04:29:33;;;;;;;26.38;19.38;;;;;;;19.82;69.40;101155.59;6126788;23;20013;-80
2021/07/10 04:31:58;;;;;;;25.67;18.70;;;;;;;19.69;70.04;101151.63;6153319;23;20009;-80
2021/07/10 04:34:24;;;;;;;26.23;18.77;;;;;;;19.69;70.47;101148.03;6127188;23;20142;-80
2021/07/10 04:36:49;;;;;;;23.60;19.17;;;;;;;19.77;69.95;101150.66;6153097;23;20016;-80
2021/07/10 04:39:14;;;;;;;23.00;19.63;;;;;;;19.69;69.95;101157.06;6153206;23;20032;-80
2021/07/10 04:41:40;;;;;;;32.90;23.10;;;;;;;19.64;70.02;101155.91;6153272;23;20445;-80
2021/07/10 04:44:05;;;;;;;30.45;21.88;;;;;;;19.21;71.51;101158.31;6126687;23;20019;-80
2021/07/10 04:46:30;;;;;;;31.92;22.70;;;;;;;19.26;71.45;101164.06;6152810;23;20072;-80
2021/07/10 04:48:56;;;;;;;28.90;21.35;;;;;;;19.50;70.68;101165.75;6126730;23;20005;-80
2021/07/10 04:51:21;;;;;;;31.38;21.77;;;;;;;19.33;71.26;101156.84;6152860;23;20009;-80
2021/07/10 04:53:46;;;;;;;33.08;22.52;;;;;;;19.32;72.98;101157.03;6126918;23;20014;-80
2021/07/10 04:56:12;;;;;;;32.58;21.65;;;;;;;19.25;72.45;101155.06;6153272;23;20033;-80
2021/07/10 04:58:38;;;;;;;29.40;21.88;;;;;;;19.58;71.23;101148.44;6127039;23;20056;-80
2021/07/10 05:01:04;;;;;;;21.65;18.98;;;;;;;19.79;69.68;101150.50;6153683;23;20028;-80
2021/07/10 05:03:30;;;;;;;26.67;21.92;;;;;;;19.35;72.12;101148.50;6153409;23;20005;-80
2021/07/10 05:05:55;;;;;;;24.70;19.95;;;;;;;19.47;71.45;101141.56;6154045;23;20056;-80
2021/07/10 05:08:21;;;;;;;25.50;19.63;;;;;;;19.73;70.40;101146.63;6152892;23;20017;-80
2021/07/10 05:10:46;;;;;;;27.15;19.10;;;;;;;19.31;71.85;101153.44;6152967;23;20093;-80
2021/07/10 05:13:11;;;;;;;24.33;18.33;;;;;;;19.20;71.60;101145.72;6153038;23;20013;-80
2021/07/10 05:15:36;;;;;;;24.55;19.08;;;;;;;19.21;72.34;101145.50;6153067;23;20013;-80
2021/07/10 05:18:03;;;;;;;25.67;17.52;;;;;;;19.25;71.80;101149.59;6153246;23;20001;-80
2021/07/10 05:20:28;;;;;;;21.02;16.85;;;;;;;19.24;72.04;101150.59;6153217;23;20039;-80
2021/07/10 05:22:54;;;;;;;23.60;17.80;;;;;;;18.92;72.84;101153.59;6153861;23;20345;-80
2021/07/10 05:25:19;;;;;;;22.45;17.02;;;;;;;18.88;73.30;101149.50;6153220;23;20013;-80
2021/07/10 05:27:45;;;;;;;23.40;16.95;;;;;;;19.01;74.15;101152.50;6152928;23;20013;-80
2021/07/10 05:30:14;;;;;;;20.80;16.42;;;;;;;19.07;73.14;101151.78;6152560;23;20476;-80
2021/07/10 05:32:40;;;;;;;21.50;15.55;;;;;;;19.07;72.96;101143.59;6152523;23;20016;-80
2021/07/10 05:35:07;;;;;;;22.00;14.73;;;;;;;19.31;72.73;101147.16;6152744;23;20338;-80
2021/07/10 05:37:33;;;;;;;25.30;16.85;;;;;;;19.30;72.47;101146.31;6152550;23;20001;-80
2021/07/10 05:39:58;;;;;;;19.42;16.08;;;;;;;19.42;72.58;101146.72;6152538;23;20010;-80
2021/07/10 05:42:23;;;;;;;17.42;14.15;;;;;;;19.57;71.71;101149.50;6152767;23;20005;-80
2021/07/10 05:44:49;;;;;;;18.08;15.25;;;;;;;19.42;71.95;101147.56;6152927;23;20040;-80
2021/07/10 05:47:14;;;;;;;18.80;13.48;;;;;;;19.48;71.83;101144.09;6126078;23;20442;-80
2021/07/10 05:49:40;;;;;;;18.95;13.68;;;;;;;19.12;72.23;101152.06;6152511;23;20012;-80
2021/07/10 05:52:06;;;;;;;24.48;13.23;;;;;;;19.46;72.39;101156.22;6153258;23;20009;-80
2021/07/10 05:54:31;;;;;;;19.33;13.02;;;;;;;19.63;71.74;101140.56;6152710;23;20009;-80
2021/07/10 05:56:56;;;;;;;25.58;14.45;;;;;;;19.62;70.84;101142.44;6152557;23;20036;-80
2021/07/10 05:59:22;;;;;;;18.70;14.18;;;;;;;19.45;71.16;101138.16;6152867;23;20538;-80
2021/07/10 06:01:47;;;;;;;19.13;13.68;;;;;;;19.43;71.05;101148.41;6154208;23;20017;-82
2021/07/10 06:04:12;;;;;;;15.98;12.98;;;;;;;19.31;72.18;101150.72;6152877;23;20017;-80
2021/07/10 06:06:38;;;;;;;16.65;12.10;;;;;;;19.30;71.78;101140.84;6126458;23;20009;-80
2021/07/10 06:09:03;;;;;;;18.48;12.52;;;;;;;19.41;72.27;101136.84;6152317;23;20012;-80
2021/07/10 06:11:29;;;;;;;14.48;11.50;;;;;;;19.62;71.07;101141.56;6152696;23;20375;-80
2021/07/10 06:13:54;;;;;;;17.70;12.68;;;;;;;19.61;69.97;101143.47;6153544;23;20037;-80
2021/07/10 06:16:19;;;;;;;17.33;11.52;;;;;;;19.81;69.35;101143.81;6152557;23;20016;-80
2021/07/10 06:18:44;;;;;;;15.68;12.45;;;;;;;19.92;68.87;101142.50;6126463;23;20009;-81
2021/07/10 06:21:10;;;;;;;19.63;12.10;;;;;;;20.06;67.94;101138.94;6126012;23;20013;-80
2021/07/10 06:23:35;;;;;;;16.85;11.57;;;;;;;20.13;68.02;101139.88;6152319;23;20389;-80
2021/07/10 06:26:00;;;;;;;14.15;11.35;;;;;;;20.10;68.32;101137.50;6152343;23;20359;-80
2021/07/10 06:28:26;;;;;;;13.95;11.73;;;;;;;20.20;67.99;101138.09;6152852;23;20021;-82
2021/07/10 06:30:51;;;;;;;15.50;11.45;;;;;;;19.96;68.75;101130.19;6153464;23;20483;-83
2021/07/10 06:33:16;;;;;;;16.95;11.27;;;;;;;19.94;68.48;101143.16;6153158;23;20005;-82
2021/07/10 06:35:42;;;;;;;18.73;11.38;;;;;;;20.25;68.03;101145.72;6152733;23;20068;-80
2021/07/10 06:38:07;;;;;;;14.73;10.60;;;;;;;20.31;67.63;101149.56;6153278;23;20005;-82
2021/07/10 06:40:33;;;;;;;14.10;11.48;;;;;;;20.09;67.89;101144.03;6153111;23;20009;-82
2021/07/10 06:42:58;;;;;;;16.98;11.20;;;;;;;20.25;67.62;101151.16;6152637;23;20013;-81
2021/07/10 06:45:24;;;;;;;17.33;10.35;;;;;;;20.41;67.87;101152.84;6152973;23;20037;-81
2021/07/10 06:47:50;;;;;;;18.05;11.35;;;;;;;20.16;67.62;101152.31;6152901;23;20009;-81
2021/07/10 06:50:19;;;;;;;13.73;11.00;;;;;;;20.12;68.37;101154.56;6153156;23;20005;-81
2021/07/10 06:52:45;;;;;;;16.33;10.23;;;;;;;20.05;67.94;101155.50;6153166;23;20009;-81
2021/07/10 06:55:14;;;;;;;9.70;8.73;;;;;;;20.19;67.27;101152.75;6153283;23;20080;-82
2021/07/10 06:57:39;;;;;;;12.63;9.27;;;;;;;20.12;66.24;101151.00;6153175;23;20084;-82
2021/07/10 07:00:11;;;;;;;12.27;9.07;;;;;;;20.38;65.89;101155.94;6153236;23;20033;-81
2021/07/10 07:02:36;;;;;;;11.40;8.32;;;;;;;20.37;66.02;101157.84;6153749;23;20472;-81
2021/07/10 07:05:03;;;;;;;9.13;8.23;;;;;;;20.42;65.52;101154.56;6152832;23;20006;-82
2021/07/10 07:07:29;;;;;;;9.23;7.53;;;;;;;20.18;66.22;101144.78;6152240;23;20010;-81
2021/07/10 07:09:54;;;;;;;9.63;6.90;;;;;;;20.12;66.08;101151.84;6152167;23;20083;-82
2021/07/10 07:12:19;;;;;;;8.38;7.00;;;;;;;20.07;65.86;101147.97;6152778;23;20024;-82
2021/07/10 07:14:45;;;;;;;8.82;6.78;;;;;;;20.25;65.63;101147.59;6153777;23;20072;-82
2021/07/10 07:17:10;;;;;;;7.20;5.30;;;;;;;20.27;64.98;101146.38;6153390;23;20002;-82
2021/07/10 07:19:35;;;;;;;6.75;5.28;;;;;;;20.22;64.55;101156.16;6126316;23;20005;-82
2021/07/10 07:22:01;;;;;;;7.97;5.10;;;;;;;20.31;64.03;101155.03;6152798;23;20064;-82
2021/07/10 07:24:26;;;;;;;8.93;5.53;;;;;;;20.36;64.15;101160.78;6153073;23;20128;-81
2021/07/10 07:26:51;;;;;;;8.98;4.93;;;;;;;20.55;64.21;101159.38;6127404;23;20005;-82
2021/07/10 07:29:17;;;;;;;4.47;3.53;;;;;;;20.64;62.06;101153.59;6152535;23;20057;-82
2021/07/10 07:31:43;;;;;;;7.47;4.20;;;;;;;20.83;61.57;101164.97;6125666;23;20029;-82
2021/07/10 07:34:09;;;;;;;5.38;4.10;;;;;;;20.47;61.65;101159.44;6125520;23;20276;-82
2021/07/10 07:36:34;;;;;;;9.90;4.68;;;;;;;20.59;62.24;101164.25;6151571;23;20025;-81
2021/07/10 07:39:01;;;;;;;8.48;3.75;;;;;;;20.81;61.88;101162.41;6151879;23;20072;-81
2021/07/10 07:41:27;;;;;;;6.95;3.83;;;;;;;21.01;60.99;101162.63;6151959;23;20427;-82
2021/07/10 07:43:52;;;;;;;8.82;3.67;;;;;;;20.98;60.57;101157.56;6151668;23;20016;-81
2021/07/10 07:46:18;;;;;;;12.68;4.97;;;;;;;20.92;60.72;101158.34;6152480;23;20010;-81
2021/07/10 07:48:43;;;;;;;6.72;3.95;;;;;;;20.97;60.40;101157.75;6152755;23;20010;-82
2021/07/10 07:51:15;;;;;;;7.03;3.70;;;;;;;21.15;60.83;101155.44;6152720;23;20005;-81
2021/07/10 07:53:44;;;;;;;5.07;4.25;;;;;;;20.98;59.85;101152.09;6152386;23;20020;-82
2021/07/10 07:56:15;;;;;;;7.32;4.10;;;;;;;20.97;60.57;101158.59;6121688;23;20497;-82
2021/07/10 08:06:25;;;;;;;6.10;3.90;;;;;;;21.10;59.50;101145.06;6158989;23;20053;-81
2021/07/10 08:11:26;;;;;;;5.40;2.92;;;;;;;21.48;57.98;101142.06;6131065;23;20716;-80
2021/07/10 08:21:37;;;;;;;5.20;2.60;;;;;;;21.25;58.28;101155.09;6158264;23;20029;-80
2021/07/10 08:34:17;;;;;;;7.68;2.60;;;;;;;20.48;58.23;101177.50;6162544;23;20076;-88
2021/07/10 08:36:42;;;;;;;3.53;2.22;;;;;;;20.65;57.41;101170.84;6126189;23;20009;-89
2021/07/10 08:39:08;;;;;;;2.70;2.45;;;;;;;20.79;56.83;101169.97;6162629;23;20017;-88
2021/07/10 08:41:34;;;;;;;5.65;2.22;;;;;;;20.94;56.23;101164.47;6155741;23;20017;-88
2021/07/10 08:43:59;;;;;;;7.15;2.50;;;;;;;21.28;55.71;101160.19;6180406;23;20005;-80
2021/07/10 08:46:25;;;;;;;2.53;1.90;;;;;;;21.23;55.54;101165.38;6179860;23;20016;-81
2021/07/10 08:57:36;;;;;;;3.92;2.40;;;;;;;21.00;56.10;101182.84;6108724;23;20089;31
2021/07/10 09:02:41;;;;;;;2.92;2.25;;;;;;;21.13;56.01;101162.97;6103018;23;20642;-79
2021/07/10 09:05:08;;;;;;;6.53;2.58;;;;;;;21.44;55.61;101165.41;6121274;23;20013;-79
2021/07/10 09:08:16;;;;;;;2.28;1.55;;;;;;;21.12;53.85;101164.03;6148567;23;20048;-79
2021/07/10 09:10:46;;;;;;;4.00;2.72;;;;;;;21.50;54.01;101163.78;6147427;23;20013;-79
2021/07/10 09:13:11;;;;;;;3.70;2.00;;;;;;;21.56;53.96;101165.72;6148515;23;20025;-79
2021/07/10 09:15:37;;;;;;;3.22;1.80;;;;;;;21.56;54.00;101165.72;6122076;23;20009;-79
2021/07/10 09:18:08;;;;;;;3.33;2.03;;;;;;;21.37;54.84;101171.88;6145057;23;20009;-79
2021/07/10 09:20:33;;;;;;;3.80;2.13;;;;;;;21.54;54.63;101167.78;6149307;23;20047;-79
2021/07/10 09:22:59;;;;;;;3.63;2.00;;;;;;;21.55;54.16;101181.31;6124065;23;20233;-79
2021/07/10 09:25:32;;;;;;;5.10;1.88;;;;;;;21.31;54.99;101181.69;6149507;23;20020;-79
2021/07/10 09:28:05;;;;;;;3.92;1.77;;;;;;;21.24;54.14;101169.78;6149231;23;20016;-79
2021/07/10 09:30:36;;;;;;;3.80;1.80;;;;;;;21.32;53.91;101176.00;6150029;23;20089;-79
2021/07/10 09:33:19;;;;;;;3.78;1.58;;;;;;;21.34;53.62;101184.84;6149510;23;20092;-82
2021/07/10 09:35:52;;;;;;;1.85;1.40;;;;;;;21.51;52.58;101170.94;6149013;23;20034;-82
2021/07/10 09:38:23;;;;;;;4.40;1.60;;;;;;;21.93;52.30;101189.16;6150071;23;20528;-82
2021/07/10 09:41:01;;;;;;;2.95;1.70;;;;;;;22.08;51.76;101178.09;6150406;23;20028;-82
2021/07/10 09:43:28;;;;;;;6.32;1.70;;;;;;;22.07;51.89;101183.78;6149269;23;20024;-82
2021/07/10 09:45:55;;;;;;;1.48;1.30;;;;;;;21.55;52.57;101174.97;6149293;23;20080;-82
2021/07/10 09:48:26;;;;;;;4.95;1.63;;;;;;;21.95;51.91;101178.88;6149225;23;20020;-82
2021/07/10 09:51:15;;;;;;;5.10;1.33;;;;;;;21.65;52.30;101180.94;6122936;23;20059;-82
2021/07/10 09:53:40;;;;;;;2.58;1.10;;;;;;;21.70;51.50;101166.66;6150304;23;20040;-82
2021/07/10 09:56:10;;;;;;;3.00;1.50;;;;;;;21.74;51.51;101166.06;6150547;23;20053;-82
2021/07/10 09:58:36;;;;;;;1.55;1.30;;;;;;;22.03;51.96;101177.84;6150404;23;20006;-82
2021/07/10 10:01:34;;;;;;;5.53;1.10;;;;;;;22.01;52.85;101171.75;6149710;23;20580;-82
2021/07/10 10:04:01;;;;;;;6.70;1.40;;;;;;;21.93;52.49;101172.75;6148696;23;20482;-82
2021/07/10 10:06:34;;;;;;;2.95;1.10;;;;;;;21.89;52.27;101170.63;6122388;23;20079;-82
2021/07/10 10:09:01;;;;;;;3.85;1.70;;;;;;;22.07;51.51;101170.94;6150035;23;20005;-82
2021/07/10 10:11:50;;;;;;;1.42;1.23;;;;;;;22.45;51.59;101162.31;6123999;23;20456;-82
2021/07/10 10:14:16;;;;;;;3.78;1.40;;;;;;;22.34;50.14;101157.41;6151290;23;20029;-82
2021/07/10 10:16:46;;;;;;;2.83;1.30;;;;;;;22.19;50.52;101172.13;6124527;23;20005;-81
2021/07/10 10:19:14;;;;;;;2.50;1.38;;;;;;;22.15;50.73;101164.44;6151291;23;20105;-82
2021/07/10 10:21:39;;;;;;;2.72;1.20;;;;;;;22.57;49.96;101151.63;6123508;23;20006;-82
2021/07/10 10:24:05;;;;;;;2.47;1.10;;;;;;;22.60;49.59;101152.06;6151089;23;20016;-82
2021/07/10 10:26:31;;;;;;;2.67;1.33;;;;;;;22.24;50.20;101152.31;6149531;23;20009;-82
2021/07/10 10:28:58;;;;;;;2.35;1.30;;;;;;;22.55;50.38;101170.16;6150708;23;20013;-82
2021/07/10 10:31:24;;;;;;;2.53;1.50;;;;;;;22.53;50.42;101175.00;6123836;23;20091;-82
2021/07/10 10:33:51;;;;;;;5.05;1.40;;;;;;;22.31;51.18;101163.28;6149888;23;20060;-82
2021/07/10 10:36:22;;;;;;;2.08;1.40;;;;;;;22.41;50.24;101152.84;6154004;23;20005;-82
2021/07/10 10:38:47;;;;;;;1.83;1.40;;;;;;;22.11;50.24;101172.22;6151191;23;20010;-82
2021/07/10 10:41:13;;;;;;;3.17;1.27;;;;;;;22.06;49.50;101160.19;6148869;23;20012;-82
2021/07/10 10:43:39;;;;;;;4.40;1.48;;;;;;;21.94;49.30;101157.16;6149796;23;20311;-82
2021/07/10 10:46:13;;;;;;;8.13;1.92;;;;;;;21.88;49.24;101144.25;6149069;23;20009;-82
2021/07/10 10:48:40;;;;;;;3.20;1.63;;;;;;;22.43;48.82;101157.03;6148970;23;20005;-82
2021/07/10 10:51:34;;;;;;;2.35;1.20;;;;;;;22.97;47.85;101149.03;6148469;23;20005;-82
2021/07/10 10:54:24;;;;;;;1.52;1.42;;;;;;;23.43;47.48;101151.84;6144665;23;20130;-82
2021/07/10 10:56:50;;;;;;;2.30;1.55;;;;;;;23.29;47.10;101153.72;6122577;23;20510;-82
2021/07/10 10:59:27;;;;;;;4.40;1.50;;;;;;;22.95;48.03;101168.44;6149369;23;20009;-82
2021/07/10 11:01:56;;;;;;;2.58;1.55;;;;;;;23.17;47.41;101153.53;6149524;23;20006;-82
2021/07/10 11:04:48;;;;;;;3.33;1.17;;;;;;;23.76;47.32;101160.09;6148979;23;20083;-82
2021/07/10 11:07:28;;;;;;;4.45;1.63;;;;;;;23.84;47.47;101168.13;6122084;23;20013;-81
2021/07/10 11:10:02;;;;;;;4.40;1.38;;;;;;;23.45;46.79;101168.97;6149322;23;20536;-82
2021/07/10 11:12:49;;;;;;;7.88;2.17;;;;;;;23.22;47.01;101165.75;6149134;23;20010;-82
2021/07/10 11:15:24;;;;;;;3.20;1.38;;;;;;;23.38;47.83;101171.66;6148996;23;20017;-82
2021/07/10 11:17:50;;;;;;;3.78;1.50;;;;;;;23.57;46.96;101171.94;6123217;23;20001;-82
2021/07/10 11:20:41;;;;;;;5.68;1.40;;;;;;;23.67;46.13;101172.34;6122981;23;20517;-82
2021/07/10 11:23:07;;;;;;;4.32;1.38;;;;;;;23.76;46.27;101162.84;6149883;23;20013;-82
2021/07/10 11:25:50;;;;;;;2.70;1.30;;;;;;;24.02;45.63;101161.97;6150111;23;20013;-82
2021/07/10 11:28:20;;;;;;;4.07;1.50;;;;;;;23.88;44.79;101164.97;6150418;23;20013;-82
2021/07/10 11:31:08;;;;;;;2.55;1.45;;;;;;;24.02;45.36;101170.19;6150092;23;20017;-82
2021/07/10 11:33:56;;;;;;;2.78;1.33;;;;;;;24.01;45.39;101170.44;6124297;23;20046;-82
2021/07/10 11:36:30;;;;;;;2.38;1.40;;;;;;;24.06;44.20;101170.66;6150942;23;20064;-82
2021/07/10 11:38:56;;;;;;;5.28;1.40;;;;;;;23.87;44.87;101174.25;6124566;23;20005;-82
2021/07/10 11:41:29;;;;;;;1.98;1.27;;;;;;;23.87;44.41;101185.22;6151041;23;20030;-82
2021/07/10 11:44:11;;;;;;;5.90;1.70;;;;;;;23.55;46.60;101183.09;6151862;23;20012;-82
2021/07/10 11:46:55;;;;;;;3.58;1.45;;;;;;;23.70;45.83;101174.69;6152927;23;20009;-82
2021/07/10 11:49:36;;;;;;;2.65;1.77;;;;;;;23.79;45.78;101167.91;6125196;23;20088;-82
2021/07/10 11:52:18;;;;;;;7.22;1.33;;;;;;;24.00;45.55;101168.75;6153868;23;20450;-81
2021/07/10 11:54:46;;;;;;;2.40;1.48;;;;;;;23.75;45.14;101179.53;6151173;23;20057;-81
2021/07/10 11:57:13;;;;;;;8.63;1.70;;;;;;;23.89;45.51;101185.88;6152854;23;20016;-81